createdAt,value
2022-09-07T00:01:15.686Z,7.54
2022-09-07T00:03:43.154Z,7.58
2022-09-07T00:06:13.091Z,7.69
2022-09-07T00:08:43.952Z,7.53
2022-09-07T00:11:15.670Z,7.63
2022-09-07T00:13:46.100Z,7.72
2022-09-07T00:16:22.641Z,7.61
2022-09-07T00:18:53.959Z,7.74
2022-09-07T00:21:21.602Z,7.68
2022-09-07T00:23:50.665Z,7.59
2022-09-07T00:26:21.865Z,7.63
2022-09-07T00:28:51.029Z,7.41
2022-09-07T00:31:23.083Z,7.54
2022-09-07T00:33:54.434Z,7.55
2022-09-07T00:36:23.451Z,7.56
2022-09-07T00:38:53.486Z,7.66
2022-09-07T00:41:22.116Z,7.56
2022-09-07T00:43:55.649Z,7.54
2022-09-07T00:46:34.031Z,7.49
2022-09-07T00:53:32.000Z,7.44
2022-09-07T00:56:00.133Z,7.40
2022-09-07T00:58:55.078Z,7.61
2022-09-07T01:01:22.609Z,7.55
2022-09-07T01:03:52.666Z,7.43
2022-09-07T01:06:26.770Z,7.58
2022-09-07T01:09:00.402Z,7.59
2022-09-07T01:11:27.568Z,7.40
2022-09-07T01:13:55.707Z,7.44
2022-09-07T01:16:32.170Z,7.53
2022-09-07T01:19:20.169Z,7.54
2022-09-07T01:22:08.716Z,7.56
2022-09-07T01:24:42.552Z,7.46
2022-09-07T01:27:35.523Z,7.55
2022-09-07T01:30:09.784Z,7.58
2022-09-07T01:33:10.013Z,7.60
2022-09-07T01:35:43.365Z,7.48
2022-09-07T01:38:25.554Z,7.35
2022-09-07T01:41:30.512Z,7.53
2022-09-07T01:44:11.264Z,7.56
2022-09-07T01:46:54.062Z,7.50
2022-09-07T01:49:27.513Z,7.40
2022-09-07T01:52:03.122Z,7.32
2022-09-07T01:54:34.872Z,7.34
2022-09-07T01:57:09.428Z,7.32
2022-09-07T01:59:43.414Z,7.17
2022-09-07T02:02:16.935Z,7.29
2022-09-07T02:04:52.662Z,7.18
2022-09-07T02:08:04.892Z,7.01
2022-09-07T02:10:41.269Z,7.10
2022-09-07T02:13:18.675Z,7.29
2022-09-07T02:15:55.203Z,7.29
2022-09-07T02:18:28.222Z,7.22
2022-09-07T02:20:59.775Z,7.34
2022-09-07T02:23:33.342Z,7.16
2022-09-07T02:26:05.043Z,7.21
2022-09-07T02:30:03.320Z,7.32
2022-09-07T02:32:30.585Z,7.17
2022-09-07T02:35:05.463Z,7.34
2022-09-07T02:37:34.515Z,7.20
2022-09-07T02:40:05.006Z,7.14
2022-09-07T02:42:34.570Z,7.23
2022-09-07T02:45:05.744Z,7.23
2022-09-07T02:47:40.225Z,7.36
2022-09-07T02:50:34.571Z,7.36
2022-09-07T02:53:04.773Z,7.38
2022-09-07T02:56:54.116Z,7.35
2022-09-07T02:59:45.832Z,7.37
2022-09-07T03:02:31.916Z,7.42
2022-09-07T03:05:05.299Z,7.33
2022-09-07T03:07:44.401Z,7.34
2022-09-07T03:10:14.100Z,7.45
2022-09-07T03:12:45.307Z,7.51
2022-09-07T03:15:22.248Z,7.46
2022-09-07T03:17:54.271Z,7.62
2022-09-07T03:20:22.520Z,7.51
2022-09-07T03:22:51.382Z,7.34
2022-09-07T03:25:19.185Z,7.56
2022-09-07T03:27:48.959Z,7.45
2022-09-07T03:30:16.380Z,7.46
2022-09-07T03:32:43.762Z,7.54
2022-09-07T03:35:11.561Z,7.58
2022-09-07T03:37:39.382Z,7.56
2022-09-07T03:40:09.556Z,7.52
2022-09-07T03:42:37.333Z,7.60
2022-09-07T03:45:07.815Z,7.45
2022-09-07T03:47:37.800Z,7.48
2022-09-07T03:50:06.539Z,7.57
2022-09-07T03:52:35.231Z,7.50
2022-09-07T03:55:05.469Z,7.72
2022-09-07T04:02:02.380Z,7.59
2022-09-07T04:04:29.603Z,7.51
2022-09-07T04:07:02.664Z,7.78
2022-09-07T04:09:30.354Z,7.74
2022-09-07T04:11:57.700Z,7.58
2022-09-07T04:14:25.135Z,7.62
2022-09-07T04:16:52.540Z,7.56
2022-09-07T04:19:55.061Z,7.63
2022-09-07T04:22:54.390Z,7.50
2022-09-07T04:25:51.545Z,7.79
2022-09-07T04:28:22.714Z,7.77
2022-09-07T04:30:54.887Z,7.62
2022-09-07T04:33:25.286Z,7.73
2022-09-07T04:35:55.903Z,7.96
2022-09-07T04:38:24.598Z,8.12
2022-09-07T04:41:03.080Z,8.00
2022-09-07T04:43:48.428Z,8.29
2022-09-07T04:46:21.950Z,8.47
2022-09-07T04:50:10.965Z,8.76
2022-09-07T04:52:41.422Z,8.68
2022-09-07T04:55:16.602Z,9.00
2022-09-07T04:57:49.830Z,8.99
2022-09-07T05:00:17.696Z,9.37
2022-09-07T05:02:45.020Z,9.67
2022-09-07T05:05:12.480Z,9.94
2022-09-07T05:07:40.526Z,10.25
2022-09-07T05:10:08.344Z,10.23
2022-09-07T05:12:36.001Z,10.59
2022-09-07T05:15:03.541Z,11.43
2022-09-07T05:17:31.397Z,12.09
2022-09-07T05:19:58.725Z,12.26
2022-09-07T05:22:25.833Z,12.23
2022-09-07T05:24:52.967Z,11.82
2022-09-07T05:27:20.265Z,11.32
2022-09-07T05:30:03.845Z,11.03
2022-09-07T05:32:32.346Z,10.70
2022-09-07T05:34:59.441Z,10.59
2022-09-07T05:37:26.819Z,10.71
2022-09-07T05:39:57.298Z,10.55
2022-09-07T05:42:24.619Z,10.34
2022-09-07T05:44:51.784Z,10.40
2022-09-07T05:47:19.088Z,10.43
2022-09-07T05:49:46.435Z,10.15
2022-09-07T05:52:13.807Z,10.29
2022-09-07T05:54:41.059Z,10.30
2022-09-07T05:57:11.513Z,10.44
2022-09-07T05:59:38.923Z,10.60
2022-09-07T06:02:07.304Z,10.63
2022-09-07T06:04:35.801Z,10.57
2022-09-07T06:07:21.191Z,10.37
2022-09-07T06:12:36.667Z,11.85
2022-09-07T06:15:05.690Z,13.43
2022-09-07T06:17:34.115Z,14.55
2022-09-07T06:20:01.282Z,15.14
2022-09-07T06:22:31.135Z,16.02
2022-09-07T06:24:58.862Z,17.04
2022-09-07T06:27:26.354Z,17.10
2022-09-07T06:29:53.402Z,15.55
2022-09-07T06:35:08.576Z,14.28
2022-09-07T06:37:38.452Z,14.04
2022-09-07T06:40:06.234Z,14.03
2022-09-07T06:42:33.681Z,14.19
2022-09-07T06:45:00.954Z,13.92
2022-09-07T06:47:28.547Z,13.70
2022-09-07T06:49:55.733Z,13.74
2022-09-07T06:52:25.425Z,13.54
2022-09-07T06:57:27.355Z,13.51
2022-09-07T06:59:55.358Z,13.34
2022-09-07T07:02:22.498Z,13.10
2022-09-07T07:04:50.474Z,12.93
2022-09-07T07:07:17.814Z,13.07
2022-09-07T07:09:45.154Z,13.06
2022-09-07T07:12:12.466Z,12.90
2022-09-07T07:14:42.681Z,13.10
2022-09-07T07:17:13.798Z,13.28
2022-09-07T07:19:41.036Z,13.26
2022-09-07T07:22:23.741Z,13.55
2022-09-07T07:24:56.545Z,13.59
2022-09-07T07:27:27.621Z,13.78
2022-09-07T07:29:54.891Z,13.84
2022-09-07T07:32:22.227Z,13.76
2022-09-07T07:34:49.323Z,13.97
2022-09-07T07:37:17.420Z,13.96
2022-09-07T07:42:32.950Z,13.77
2022-09-07T07:47:52.466Z,13.58
2022-09-07T07:50:35.117Z,13.41
2022-09-07T07:55:50.396Z,13.15
2022-09-07T07:58:19.738Z,13.26
2022-09-07T08:00:56.173Z,13.45
2022-09-07T08:03:26.555Z,13.95
2022-09-07T08:05:55.932Z,14.91
2022-09-07T08:08:25.356Z,15.56
2022-09-07T08:10:55.317Z,15.46
2022-09-07T08:13:23.528Z,15.31
2022-09-07T08:15:50.933Z,15.13
2022-09-07T08:18:18.505Z,14.68
2022-09-07T08:20:47.266Z,13.82
2022-09-07T08:23:16.006Z,13.43
2022-09-07T08:25:52.108Z,13.71
2022-09-07T08:28:23.721Z,13.99
2022-09-07T08:30:50.982Z,14.71
2022-09-07T08:33:21.226Z,14.87
2022-09-07T08:36:00.606Z,15.85
2022-09-07T08:38:30.763Z,16.05
2022-09-07T08:40:59.055Z,15.79
2022-09-07T08:43:58.330Z,15.59
2022-09-07T08:46:41.155Z,14.94
2022-09-07T08:49:28.046Z,14.36
2022-09-07T08:52:04.371Z,13.79
2022-09-07T08:54:36.432Z,14.33
2022-09-07T08:57:27.253Z,16.24
2022-09-07T09:00:10.459Z,17.85
2022-09-07T09:02:43.504Z,18.26
2022-09-07T09:05:28.058Z,18.04
2022-09-07T09:08:29.112Z,16.45
2022-09-07T09:11:06.285Z,15.19
2022-09-07T09:14:04.501Z,14.85
2022-09-07T09:16:53.337Z,14.89
2022-09-07T09:19:42.007Z,14.66
2022-09-07T09:22:22.962Z,14.79
2022-09-07T09:25:06.213Z,14.55
2022-09-07T09:27:45.937Z,14.59
2022-09-07T09:30:34.340Z,14.19
2022-09-07T09:33:23.142Z,13.94
2022-09-07T09:36:26.343Z,13.03
2022-09-07T09:39:08.959Z,13.15
2022-09-07T09:41:57.378Z,12.86
2022-09-07T09:44:44.518Z,13.04
2022-09-07T09:47:37.100Z,13.61
2022-09-07T09:53:43.570Z,15.34
2022-09-07T09:56:18.093Z,15.93
2022-09-07T10:06:03.703Z,16.57
2022-09-07T10:08:42.530Z,16.48
2022-09-07T10:12:07.598Z,15.55
2022-09-07T10:14:45.229Z,14.57
2022-09-07T10:17:50.445Z,13.98
2022-09-07T10:20:57.318Z,13.86
2022-09-07T10:23:55.803Z,13.73
2022-09-07T10:30:07.130Z,13.50
2022-09-07T10:33:15.604Z,13.59
2022-09-07T10:36:34.625Z,13.51
2022-09-07T10:40:08.952Z,13.50
2022-09-07T10:43:22.290Z,12.99
2022-09-07T10:46:56.376Z,12.70
2022-09-07T10:49:18.703Z,12.73
2022-09-07T10:52:17.336Z,12.60
2022-09-07T10:55:02.089Z,12.70
2022-09-07T10:57:59.850Z,12.58
2022-09-07T11:00:48.746Z,12.26
2022-09-07T11:03:52.223Z,12.13
2022-09-07T11:06:58.059Z,12.07
2022-09-07T11:10:15.029Z,11.95
2022-09-07T11:13:13.542Z,11.90
2022-09-07T11:15:51.499Z,11.87
2022-09-07T11:18:44.418Z,11.40
2022-09-07T11:24:41.362Z,11.01
2022-09-07T11:27:57.768Z,10.92
2022-09-07T11:30:39.696Z,10.63
2022-09-07T11:36:50.966Z,10.40
2022-09-07T11:39:41.382Z,10.27
2022-09-07T11:42:44.109Z,10.30
2022-09-07T11:45:15.303Z,10.32
2022-09-07T11:48:32.770Z,9.99
2022-09-07T11:51:45.399Z,10.13
2022-09-07T11:58:33.776Z,9.82
2022-09-07T12:02:08.825Z,9.69
2022-09-07T12:05:46.699Z,9.64
2022-09-07T12:08:44.579Z,9.57
2022-09-07T12:14:02.523Z,9.48
2022-09-07T12:16:41.623Z,9.07
2022-09-07T12:19:47.481Z,8.90
2022-09-07T12:22:25.730Z,8.92
2022-09-07T12:25:43.121Z,8.79
2022-09-07T12:29:02.375Z,8.97
2022-09-07T12:36:24.936Z,8.91
2022-09-07T12:39:49.286Z,8.72
2022-09-07T12:42:57.299Z,8.70
2022-09-07T12:45:45.166Z,8.82
2022-09-07T12:48:30.373Z,8.70
2022-09-07T12:54:46.437Z,8.37
2022-09-07T12:58:03.321Z,8.63
2022-09-07T13:01:22.568Z,8.50
2022-09-07T13:04:33.129Z,8.75
2022-09-07T13:11:34.392Z,8.66
2022-09-07T13:14:16.968Z,8.76
2022-09-07T13:19:54.586Z,8.85
2022-09-07T13:22:49.794Z,8.82
2022-09-07T13:26:01.071Z,8.96
2022-09-07T13:30:01.591Z,8.72
2022-09-07T13:35:47.919Z,8.93
2022-09-07T13:39:27.419Z,8.73
2022-09-07T13:42:04.592Z,8.72
2022-09-07T13:45:01.691Z,8.91
2022-09-07T13:48:10.914Z,8.76
2022-09-07T13:51:10.977Z,8.74
2022-09-07T13:54:42.613Z,8.96
2022-09-07T13:58:49.348Z,8.98
2022-09-07T14:01:05.770Z,8.77
2022-09-07T14:04:37.637Z,8.90
2022-09-07T14:07:25.861Z,8.75
2022-09-07T14:10:28.535Z,8.75
2022-09-07T14:13:17.611Z,8.80
2022-09-07T14:15:51.239Z,8.98
2022-09-07T14:18:31.673Z,8.88
2022-09-07T14:21:01.953Z,8.85
2022-09-07T14:23:40.145Z,8.97
2022-09-07T14:26:19.503Z,9.13
2022-09-07T14:28:59.829Z,9.08
2022-09-07T14:31:34.765Z,8.98
2022-09-07T14:34:02.936Z,9.09
2022-09-07T14:36:45.830Z,9.09
2022-09-07T14:39:19.942Z,9.16
2022-09-07T14:41:51.238Z,9.16
2022-09-07T14:44:36.312Z,9.33
2022-09-07T14:47:52.761Z,9.26
2022-09-07T14:50:34.044Z,9.10
2022-09-07T14:56:08.301Z,9.25
2022-09-07T14:58:55.891Z,9.20
2022-09-07T15:02:03.114Z,9.19
2022-09-07T15:05:55.497Z,9.33
2022-09-07T15:09:52.681Z,9.35
2022-09-07T15:12:39.223Z,9.14
2022-09-07T15:16:01.571Z,9.22
2022-09-07T15:19:37.080Z,9.24
2022-09-07T15:22:23.389Z,9.43
2022-09-07T15:25:17.604Z,9.32
2022-09-07T15:27:58.739Z,9.45
2022-09-07T15:34:14.181Z,9.23
2022-09-07T15:43:28.920Z,9.34
2022-09-07T15:46:07.733Z,9.11
2022-09-07T15:49:05.293Z,9.09
2022-09-07T15:52:06.615Z,9.05
2022-09-07T15:55:41.348Z,9.20
2022-09-07T15:58:12.210Z,9.19
2022-09-07T16:04:10.952Z,9.11
2022-09-07T16:08:24.640Z,9.07
2022-09-07T16:09:31.406Z,9.31
2022-09-07T16:15:12.674Z,9.13
2022-09-07T16:18:05.804Z,9.07
2022-09-07T16:21:28.516Z,9.03
2022-09-07T16:24:33.074Z,9.05
2022-09-07T16:27:21.474Z,9.05
2022-09-07T16:30:34.835Z,9.01
2022-09-07T16:33:06.171Z,9.07
2022-09-07T16:37:11.613Z,9.07
2022-09-07T16:38:48.571Z,9.01
2022-09-07T16:41:27.373Z,9.06
2022-09-07T16:43:55.148Z,9.08
2022-09-07T16:46:27.155Z,9.23
2022-09-07T16:49:01.149Z,9.24
2022-09-07T16:51:33.862Z,9.13
2022-09-07T16:54:08.254Z,8.99
2022-09-07T16:56:39.077Z,9.09
2022-09-07T16:59:18.709Z,9.23
2022-09-07T17:01:49.187Z,9.15
2022-09-07T17:04:22.243Z,9.23
2022-09-07T17:06:59.761Z,9.32
2022-09-07T17:13:40.545Z,9.33
2022-09-07T17:16:08.661Z,9.11
2022-09-07T17:21:39.276Z,9.40
2022-09-07T17:24:08.363Z,9.40
2022-09-07T17:26:36.286Z,9.44
2022-09-07T17:29:04.705Z,9.38
2022-09-07T17:34:33.109Z,9.43
2022-09-07T17:37:03.982Z,9.37
2022-09-07T17:39:31.620Z,9.38
2022-09-07T17:45:46.041Z,9.27
2022-09-07T17:48:30.586Z,9.29
2022-09-07T17:51:10.349Z,9.36
2022-09-07T17:53:39.679Z,9.44
2022-09-07T17:56:45.488Z,9.33
2022-09-07T18:02:37.582Z,9.40
2022-09-07T18:05:07.948Z,9.42
2022-09-07T18:07:36.657Z,9.43
2022-09-07T18:10:14.249Z,9.27
2022-09-07T18:12:50.530Z,9.31
2022-09-07T18:15:22.898Z,9.22
2022-09-07T18:17:55.287Z,9.48
2022-09-07T18:20:24.409Z,9.44
2022-09-07T18:22:51.881Z,9.37
2022-09-07T18:25:19.326Z,9.23
2022-09-07T18:30:44.856Z,9.23
2022-09-07T18:33:19.517Z,9.28
2022-09-07T18:36:07.966Z,9.10
2022-09-07T18:38:38.237Z,9.04
2022-09-07T18:41:11.524Z,9.03
2022-09-07T18:43:49.995Z,8.88
2022-09-07T18:46:22.509Z,8.80
2022-09-07T18:48:54.279Z,8.96
2022-09-07T18:51:25.491Z,8.95
2022-09-07T18:53:55.526Z,8.70
2022-09-07T18:56:36.491Z,8.73
2022-09-07T18:59:09.790Z,8.76
2022-09-07T19:01:38.382Z,8.87
2022-09-07T19:04:06.536Z,8.73
2022-09-07T19:06:34.077Z,8.71
2022-09-07T19:09:13.958Z,8.77
2022-09-07T19:11:44.437Z,8.72
2022-09-07T19:14:22.591Z,8.53
2022-09-07T19:16:50.178Z,8.63
2022-09-07T19:19:28.768Z,8.53
2022-09-07T19:22:04.953Z,8.53
2022-09-07T19:24:33.202Z,8.63
2022-09-07T19:27:01.305Z,8.63
2022-09-07T19:30:15.351Z,8.73
2022-09-07T19:33:32.537Z,8.57
2022-09-07T19:35:39.249Z,8.51
2022-09-07T19:43:05.384Z,8.66
2022-09-07T19:45:41.306Z,8.42
2022-09-07T19:48:12.869Z,8.43
2022-09-07T19:50:52.291Z,8.66
2022-09-07T19:53:27.061Z,8.71
2022-09-07T19:56:02.806Z,8.56
2022-09-07T19:58:35.504Z,8.52
2022-09-07T20:01:17.518Z,8.61
2022-09-07T20:03:47.143Z,8.68
2022-09-07T20:06:15.951Z,8.68
2022-09-07T20:08:46.281Z,8.72
2022-09-07T20:11:16.147Z,8.72
2022-09-07T20:13:44.352Z,8.84
2022-09-07T20:16:13.847Z,8.74
2022-09-07T20:18:42.812Z,8.71
2022-09-07T20:21:13.818Z,8.67
2022-09-07T20:23:41.267Z,8.80
2022-09-07T20:26:11.359Z,8.74
2022-09-07T20:28:39.396Z,8.75
2022-09-07T20:31:15.159Z,8.93
2022-09-07T20:33:44.482Z,8.69
2022-09-07T20:36:17.156Z,8.89
2022-09-07T20:38:54.379Z,8.85
2022-09-07T20:41:24.667Z,8.82
2022-09-07T20:43:52.270Z,8.69
2022-09-07T20:46:19.638Z,8.68
2022-09-07T20:53:13.343Z,8.68
2022-09-07T20:55:40.475Z,8.71
2022-09-07T20:58:09.176Z,8.69
2022-09-07T21:00:36.645Z,8.70
2022-09-07T21:03:04.236Z,8.67
2022-09-07T21:05:31.777Z,8.74
2022-09-07T21:07:59.239Z,8.74
2022-09-07T21:10:27.264Z,8.69
2022-09-07T21:12:55.073Z,8.73
2022-09-07T21:15:22.128Z,8.68
2022-09-07T21:17:49.385Z,8.59
2022-09-07T21:20:16.623Z,8.54
2022-09-07T21:22:43.686Z,8.62
2022-09-07T21:25:10.924Z,8.64
2022-09-07T21:27:39.335Z,8.71
2022-09-07T21:30:07.288Z,8.63
2022-09-07T21:32:34.777Z,8.63
2022-09-07T21:35:02.806Z,8.70
2022-09-07T21:37:30.290Z,8.74
2022-09-07T21:39:58.308Z,8.61
2022-09-07T21:42:26.043Z,8.73
2022-09-07T21:44:55.524Z,8.78
2022-09-07T21:47:50.746Z,9.13
2022-09-07T21:50:17.949Z,9.04
2022-09-07T21:52:45.517Z,8.92
2022-09-07T21:55:12.629Z,8.94
2022-09-07T21:57:40.938Z,8.96
2022-09-07T22:00:10.503Z,8.94
2022-09-07T22:02:37.925Z,8.93
2022-09-07T22:05:05.407Z,8.94
2022-09-07T22:07:33.009Z,8.85
2022-09-07T22:10:02.732Z,8.93
2022-09-07T22:12:29.966Z,8.91
2022-09-07T22:14:57.223Z,8.99
2022-09-07T22:17:26.837Z,8.96
2022-09-07T22:19:53.975Z,8.92
2022-09-07T22:22:21.297Z,8.98
2022-09-07T22:24:48.652Z,8.98
2022-09-07T22:27:15.978Z,8.92
2022-09-07T22:29:45.824Z,8.89
2022-09-07T22:32:13.044Z,8.89
2022-09-07T22:34:41.836Z,9.04
2022-09-07T22:37:10.301Z,8.95
2022-09-07T22:39:38.908Z,9.05
2022-09-07T22:42:06.278Z,8.87
2022-09-07T22:44:33.429Z,9.05
2022-09-07T22:47:00.629Z,8.84
2022-09-07T22:49:29.101Z,9.08
2022-09-07T22:51:56.302Z,8.97
2022-09-07T22:54:23.742Z,8.94
2022-09-07T22:56:51.100Z,8.89
2022-09-07T22:59:19.551Z,8.88
2022-09-07T23:01:47.222Z,9.10
2022-09-07T23:04:17.378Z,9.03
2022-09-07T23:06:44.626Z,8.97
2022-09-07T23:09:17.474Z,9.00
2022-09-07T23:11:46.872Z,8.85
2022-09-07T23:14:20.526Z,8.85
2022-09-07T23:16:48.470Z,8.93
2022-09-07T23:20:46.751Z,9.01
2022-09-07T23:23:14.415Z,9.00
2022-09-07T23:25:43.149Z,8.92
2022-09-07T23:28:40.045Z,8.99
2022-09-07T23:31:10.415Z,8.99
2022-09-07T23:33:37.741Z,9.05
2022-09-07T23:36:09.628Z,8.94
2022-09-07T23:39:02.069Z,9.09
2022-09-07T23:41:29.334Z,9.07
2022-09-07T23:43:57.261Z,8.98
2022-09-07T23:46:24.704Z,9.03
2022-09-07T23:48:56.102Z,9.08
2022-09-07T23:51:24.801Z,9.00
2022-09-07T23:53:53.552Z,8.97
2022-09-07T23:56:22.113Z,9.02
2022-09-07T23:58:49.611Z,8.99
